Sitc Xiamen — 3ELU — position and weather

sailwx.info

Track history (hours):
 
Tides and Currents Weather Stations Pressure Air Temp Water Temp Dewpoint Dewpoint Depression Visibility Wind Speed Wind Dir Waves Ship Positions

Sitc Xiamen

Last reported at 2014-Jul-30 15:27 UTC. Time now 2014-Jul-31 17:39 UTC.
Position N 34°33' E 134°47'.

Length 145 m; draft 6.4 m.

Type: Ship (hazmat cat A). MMSI: 355090000.

Date/timePositionNaut miles runAvg speedWind from/ knotsBaromVisibWave heightAir tempDewpointWater temp
2014-Jul-30 15:27N 34°33' E 134°47'1314.9
2014-Jul-30 14:33N 34°37' E 135°03'1010.2
2014-Jul-30 13:33N 34°40' E 135°15'1 0.5
2014-Jul-30 12:30N 34°40' E 135°14'0 0.0
2014-Jul-30 11:30N 34°40' E 135°14'0 0.0
2014-Jul-30 10:18N 34°40' E 135°14'0 0.0
2014-Jul-30 09:30N 34°40' E 135°14'1 0.6
2014-Jul-30 08:33N 34°40' E 135°15'6 5.6
2014-Jul-30 07:33N 34°39' E 135°21'2 2.0
2014-Jul-30 06:22N 34°39' E 135°24'0 0.0
2014-Jul-30 05:28N 34°39' E 135°24'0 0.0
2014-Jul-30 02:10N 34°39' E 135°24'0 0.0
2014-Jul-30 01:28N 34°39' E 135°24'0 0.0
2014-Jul-30 00:28N 34°39' E 135°24'0 0.0
2014-Jul-29 23:22N 34°39' E 135°24'0 0.0
2014-Jul-29 22:28N 34°39' E 135°24'2 1.9
2014-Jul-29 21:33N 34°38' E 135°23'1010.5
2014-Jul-29 20:33N 34°35' E 135°10'1514.5
2014-Jul-29 19:33N 34°35' E 134°53'11312.0
2014-Jul-29 10:08N 33°58' E 132°43'13012.2
2014-Jul-28 23:30N 33°47' E 130°07'1414.6
2014-Jul-28 22:33N 33°41' E 129°53'43214.3
2014-Jul-27 16:25N 31°16' E 121°50'910.5
2014-Jul-27 15:33N 31°21' E 121°40'4 4.3
2014-Jul-27 14:33N 31°22' E 121°36'0 0.0
2014-Jul-27 13:33N 31°22' E 121°36'0 0.0
2014-Jul-27 12:21N 31°22' E 121°36'0 0.0
2014-Jul-27 11:15N 31°22' E 121°36'0 0.0
2014-Jul-27 10:33N 31°22' E 121°36'0 0.0
2014-Jul-27 09:27N 31°22' E 121°36'0 0.0
2014-Jul-27 08:27N 31°22' E 121°36'0 0.0
2014-Jul-27 07:33N 31°22' E 121°36'0 0.0
2014-Jul-27 06:33N 31°22' E 121°36'0 0.0
2014-Jul-27 05:27N 31°22' E 121°36'2 2.0
2014-Jul-27 04:32N 31°23' E 121°34'9 9.0
2014-Jul-27 03:33N 31°29' E 121°26'10 9.9
2014-Jul-27 02:33N 31°36' E 121°17'4 2.0
2014-Jul-27 00:28N 31°38' E 121°14'0 0.0
2014-Jul-26 21:31N 31°38' E 121°14'0 0.0
2014-Jul-26 19:25N 31°38' E 121°14'0 0.1
2014-Jul-26 18:31N 31°38' E 121°14'0 0.4
2014-Jul-26 17:30N 31°39' E 121°14'1112.0
2014-Jul-26 16:33N 31°31' E 121°24'1010.0
2014-Jul-26 15:33N 31°24' E 121°33'1110.8
2014-Jul-26 14:33N 31°18' E 121°43'1511.7
2014-Jul-26 13:16N 31°08' E 121°56'2112.4
2014-Jul-26 11:33N 31°02' E 122°20'1414.4
2014-Jul-26 10:33N 30°59' E 122°36'39813.2
2014-Jul-25 04:22N 33°39' E 129°48'1113.8
2014-Jul-25 03:33N 33°44' E 129°60'4213.4
2014-Jul-25 00:23N 34°03' E 130°46'20212.8
2014-Jul-24 08:31N 34°33' E 134°48'1414.9
2014-Jul-24 07:33N 34°36' E 135°05'8 8.0
2014-Jul-24 06:33N 34°40' E 135°14'0 0.0
2014-Jul-24 05:23N 34°40' E 135°14'0 0.0
2014-Jul-24 04:29N 34°40' E 135°14'4 4.0
2014-Jul-24 03:33N 34°38' E 135°18'5 4.7
2014-Jul-24 02:33N 34°39' E 135°24'0 0.0
2014-Jul-24 01:33N 34°39' E 135°24'0 0.0
2014-Jul-24 00:33N 34°39' E 135°24'0 0.0
2014-Jul-23 23:33N 34°39' E 135°24'0 0.0
2014-Jul-23 22:33N 34°39' E 135°24'0 0.0
2014-Jul-23 21:33N 34°39' E 135°24'0 0.0
2014-Jul-23 20:33N 34°39' E 135°24'0 0.0
2014-Jul-23 19:33N 34°39' E 135°24'0 0.0
2014-Jul-23 18:33N 34°39' E 135°24'0 0.0
2014-Jul-23 17:33N 34°39' E 135°24'0 0.0
2014-Jul-23 16:33N 34°39' E 135°24'0 0.0
2014-Jul-23 15:33N 34°39' E 135°24'0 0.0
2014-Jul-23 14:33N 34°39' E 135°24'0 0.0
2014-Jul-23 13:33N 34°39' E 135°24'9 9.2
2014-Jul-23 12:33N 34°33' E 135°16'1615.6
2014-Jul-23 11:33N 34°21' E 135°03'1515.2
2014-Jul-23 10:33N 34°07' E 134°57'65714.5
2014-Jul-21 13:12N 31°06' E 122°27'1012.3
2014-Jul-21 12:24N 31°08' E 122°16'1914.6
2014-Jul-21 11:05N 31°16' E 121°55'814.5
2014-Jul-21 10:33N 31°18' E 121°47'10 9.2
2014-Jul-21 09:26N 31°22' E 121°36'0 0.0
2014-Jul-21 08:32N 31°22' E 121°36'0 0.0
2014-Jul-21 07:32N 31°22' E 121°36'0 0.0
2014-Jul-21 05:32N 31°22' E 121°36'0 0.0
2014-Jul-21 04:32N 31°22' E 121°36'0 0.0
2014-Jul-21 03:20N 31°22' E 121°36'0 0.0
2014-Jul-21 02:32N 31°22' E 121°36'0 0.0
2014-Jul-21 01:32N 31°22' E 121°36'0 0.0
2014-Jul-21 00:32N 31°22' E 121°36'0 0.0
2014-Jul-20 23:32N 31°22' E 121°36'2 1.7
2014-Jul-20 22:33N 31°23' E 121°34'7 6.8
2014-Jul-20 21:33N 31°27' E 121°28'1010.2
2014-Jul-20 20:33N 31°34' E 121°19'6 5.2
2014-Jul-20 19:27N 31°38' E 121°14'0 0.0
2014-Jul-20 17:03N 31°38' E 121°14'0 0.0
2014-Jul-20 16:33N 31°38' E 121°14'  
Track history (hours):
 
Tides and Currents Weather Stations Pressure Air Temp Water Temp Dewpoint Dewpoint Depression Visibility Wind Speed Wind Dir Waves Ship Positions

Sitc Xiamen

Last reported at 2014-Jul-30 15:27 UTC. Time now 2014-Jul-31 17:39 UTC.
Position N 34°33' E 134°47'.

Length 145 m; draft 6.4 m.

Type: Ship (hazmat cat A). MMSI: 355090000.

Date/timePositionNaut miles runAvg speedWind from/ knotsBaromVisibWave heightAir tempDewpointWater temp
2014-Jul-30 15:27N 34°33' E 134°47'1314.9
2014-Jul-30 14:33N 34°37' E 135°03'1010.2
2014-Jul-30 13:33N 34°40' E 135°15'1 0.5
2014-Jul-30 12:30N 34°40' E 135°14'0 0.0
2014-Jul-30 11:30N 34°40' E 135°14'0 0.0
2014-Jul-30 10:18N 34°40' E 135°14'0 0.0
2014-Jul-30 09:30N 34°40' E 135°14'1 0.6
2014-Jul-30 08:33N 34°40' E 135°15'6 5.6
2014-Jul-30 07:33N 34°39' E 135°21'2 2.0
2014-Jul-30 06:22N 34°39' E 135°24'0 0.0
2014-Jul-30 05:28N 34°39' E 135°24'0 0.0
2014-Jul-30 02:10N 34°39' E 135°24'0 0.0
2014-Jul-30 01:28N 34°39' E 135°24'0 0.0
2014-Jul-30 00:28N 34°39' E 135°24'0 0.0
2014-Jul-29 23:22N 34°39' E 135°24'0 0.0
2014-Jul-29 22:28N 34°39' E 135°24'2 1.9
2014-Jul-29 21:33N 34°38' E 135°23'1010.5
2014-Jul-29 20:33N 34°35' E 135°10'1514.5
2014-Jul-29 19:33N 34°35' E 134°53'11312.0
2014-Jul-29 10:08N 33°58' E 132°43'13012.2
2014-Jul-28 23:30N 33°47' E 130°07'1414.6
2014-Jul-28 22:33N 33°41' E 129°53'43214.3
2014-Jul-27 16:25N 31°16' E 121°50'910.5
2014-Jul-27 15:33N 31°21' E 121°40'4 4.3
2014-Jul-27 14:33N 31°22' E 121°36'0 0.0
2014-Jul-27 13:33N 31°22' E 121°36'0 0.0
2014-Jul-27 12:21N 31°22' E 121°36'0 0.0
2014-Jul-27 11:15N 31°22' E 121°36'0 0.0
2014-Jul-27 10:33N 31°22' E 121°36'0 0.0
2014-Jul-27 09:27N 31°22' E 121°36'0 0.0
2014-Jul-27 08:27N 31°22' E 121°36'0 0.0
2014-Jul-27 07:33N 31°22' E 121°36'0 0.0
2014-Jul-27 06:33N 31°22' E 121°36'0 0.0
2014-Jul-27 05:27N 31°22' E 121°36'2 2.0
2014-Jul-27 04:32N 31°23' E 121°34'9 9.0
2014-Jul-27 03:33N 31°29' E 121°26'10 9.9
2014-Jul-27 02:33N 31°36' E 121°17'4 2.0
2014-Jul-27 00:28N 31°38' E 121°14'0 0.0
2014-Jul-26 21:31N 31°38' E 121°14'0 0.0
2014-Jul-26 19:25N 31°38' E 121°14'0 0.1
2014-Jul-26 18:31N 31°38' E 121°14'0 0.4
2014-Jul-26 17:30N 31°39' E 121°14'1112.0
2014-Jul-26 16:33N 31°31' E 121°24'1010.0
2014-Jul-26 15:33N 31°24' E 121°33'1110.8
2014-Jul-26 14:33N 31°18' E 121°43'1511.7
2014-Jul-26 13:16N 31°08' E 121°56'2112.4
2014-Jul-26 11:33N 31°02' E 122°20'1414.4
2014-Jul-26 10:33N 30°59' E 122°36'39813.2
2014-Jul-25 04:22N 33°39' E 129°48'1113.8
2014-Jul-25 03:33N 33°44' E 129°60'4213.4
2014-Jul-25 00:23N 34°03' E 130°46'20212.8
2014-Jul-24 08:31N 34°33' E 134°48'1414.9
2014-Jul-24 07:33N 34°36' E 135°05'8 8.0
2014-Jul-24 06:33N 34°40' E 135°14'0 0.0
2014-Jul-24 05:23N 34°40' E 135°14'0 0.0
2014-Jul-24 04:29N 34°40' E 135°14'4 4.0
2014-Jul-24 03:33N 34°38' E 135°18'5 4.7
2014-Jul-24 02:33N 34°39' E 135°24'0 0.0
2014-Jul-24 01:33N 34°39' E 135°24'0 0.0
2014-Jul-24 00:33N 34°39' E 135°24'0 0.0
2014-Jul-23 23:33N 34°39' E 135°24'0 0.0
2014-Jul-23 22:33N 34°39' E 135°24'0 0.0
2014-Jul-23 21:33N 34°39' E 135°24'0 0.0
2014-Jul-23 20:33N 34°39' E 135°24'0 0.0
2014-Jul-23 19:33N 34°39' E 135°24'0 0.0
2014-Jul-23 18:33N 34°39' E 135°24'0 0.0
2014-Jul-23 17:33N 34°39' E 135°24'0 0.0
2014-Jul-23 16:33N 34°39' E 135°24'0 0.0
2014-Jul-23 15:33N 34°39' E 135°24'0 0.0
2014-Jul-23 14:33N 34°39' E 135°24'0 0.0
2014-Jul-23 13:33N 34°39' E 135°24'9 9.2
2014-Jul-23 12:33N 34°33' E 135°16'1615.6
2014-Jul-23 11:33N 34°21' E 135°03'1515.2
2014-Jul-23 10:33N 34°07' E 134°57'65714.5
2014-Jul-21 13:12N 31°06' E 122°27'1012.3
2014-Jul-21 12:24N 31°08' E 122°16'1914.6
2014-Jul-21 11:05N 31°16' E 121°55'814.5
2014-Jul-21 10:33N 31°18' E 121°47'10 9.2
2014-Jul-21 09:26N 31°22' E 121°36'0 0.0
2014-Jul-21 08:32N 31°22' E 121°36'0 0.0
2014-Jul-21 07:32N 31°22' E 121°36'0 0.0
2014-Jul-21 05:32N 31°22' E 121°36'0 0.0
2014-Jul-21 04:32N 31°22' E 121°36'0 0.0
2014-Jul-21 03:20N 31°22' E 121°36'0 0.0
2014-Jul-21 02:32N 31°22' E 121°36'0 0.0
2014-Jul-21 01:32N 31°22' E 121°36'0 0.0
2014-Jul-21 00:32N 31°22' E 121°36'0 0.0
2014-Jul-20 23:32N 31°22' E 121°36'2 1.7
2014-Jul-20 22:33N 31°23' E 121°34'7 6.8
2014-Jul-20 21:33N 31°27' E 121°28'1010.2
2014-Jul-20 20:33N 31°34' E 121°19'6 5.2
2014-Jul-20 19:27N 31°38' E 121°14'0 0.0
2014-Jul-20 17:03N 31°38' E 121°14'0 0.0
2014-Jul-20 16:33N 31°38' E 121°14'  

Dump ship's entire track history